Terminal Aerodrome Forecast
Issued by NWS

Home | Current Version | Previous Version | Graphics & Text | Print | Product List | Glossary On
Versions: 1 2 3 4 5 6 7 8 9 10 11 12 13 14 15
000
FTUS42 KMHX 271042 AAB
TAFISO
TAF AMD
KISO 271042Z 2711/2806 00000KT 2SM BR OVC007
      TEMPO 2711/2713 5SM BR SKC
     FM271300 36006KT P6SM SCT250
     FM280100 01004KT P6SM BKN025
      AMD LTD TO CLD VIS AND WIND=

USA.gov is the U.S. government's official web portal to all federal, state and local government web resources and services.